Time;durP1;ratioP1;P1;durP2;ratioP2;P2;SDS_P1;SDS_P2;PMS_P1;PMS_P2;Temp;Humidity;BMP_temperature;BMP_pressure;BME280_temperature;BME280_humidity;BME280_pressure;Samples;Min_cycle;Max_cycle;Signal;HPM_P1;HPM_P2
2021/08/07 00:00:00;;;;;;;2.58;1.60;;;;;;;14.43;94.17;99314.91;5082416;28;20120;-64
2021/08/07 00:02:27;;;;;;;4.43;1.83;;;;;;;14.49;93.32;99308.78;5080174;28;20045;-64
2021/08/07 00:04:53;;;;;;;5.30;1.55;;;;;;;14.43;93.55;99304.09;5081776;28;20117;-61
2021/08/07 00:07:19;;;;;;;4.00;2.38;;;;;;;14.42;93.94;99307.84;5084910;28;20040;-64
2021/08/07 00:09:47;;;;;;;3.58;1.75;;;;;;;14.47;93.70;99310.84;5083726;28;20045;-59
2021/08/07 00:12:13;;;;;;;3.08;1.60;;;;;;;14.45;93.57;99319.13;5075805;28;20072;-56
2021/08/07 00:14:39;;;;;;;2.92;1.42;;;;;;;14.41;93.94;99319.66;5080588;28;20075;-57
2021/08/07 00:17:06;;;;;;;3.50;1.83;;;;;;;14.44;93.72;99311.16;5082996;28;20455;-58
2021/08/07 00:19:33;;;;;;;4.75;1.70;;;;;;;14.40;93.89;99316.13;5088291;28;20072;-62
2021/08/07 00:21:59;;;;;;;3.55;1.52;;;;;;;14.38;94.21;99317.34;5072175;28;20498;-63
2021/08/07 00:24:25;;;;;;;2.90;1.48;;;;;;;14.29;94.24;99312.06;5085252;28;20114;-61
2021/08/07 00:26:53;;;;;;;3.45;1.67;;;;;;;14.25;94.38;99312.63;5071677;28;20387;-62
2021/08/07 00:29:19;;;;;;;2.95;2.00;;;;;;;14.16;94.69;99309.22;5088902;28;20052;-61
2021/08/07 00:31:46;;;;;;;4.13;1.60;;;;;;;14.16;94.80;99314.59;5073553;28;20049;-59
2021/08/07 00:34:12;;;;;;;3.08;1.80;;;;;;;14.08;94.77;99320.09;5081296;28;20080;-63
2021/08/07 00:36:38;;;;;;;3.47;2.03;;;;;;;14.04;95.01;99316.13;5079564;28;20547;-63
2021/08/07 00:39:05;;;;;;;6.38;2.03;;;;;;;13.94;95.21;99315.56;5081190;28;20098;-62
2021/08/07 00:41:31;;;;;;;4.97;2.10;;;;;;;13.86;95.64;99329.19;5072757;28;20097;-62
2021/08/07 00:43:59;;;;;;;5.13;1.80;;;;;;;13.78;95.29;99318.50;5070435;28;20072;-63
2021/08/07 00:46:26;;;;;;;2.50;1.35;;;;;;;13.73;95.50;99325.28;5080141;28;20407;-64
2021/08/07 00:48:53;;;;;;;4.30;1.85;;;;;;;13.70;95.42;99322.09;5086112;28;20072;-61
2021/08/07 00:51:19;;;;;;;4.13;1.58;;;;;;;13.64;95.67;99329.09;5086384;28;20063;-62
2021/08/07 00:53:46;;;;;;;3.60;1.90;;;;;;;13.61;95.74;99324.06;5079154;28;20086;-62
2021/08/07 00:56:13;;;;;;;3.60;2.33;;;;;;;13.58;95.74;99326.28;5084467;28;20453;-62
2021/08/07 00:58:40;;;;;;;4.10;2.05;;;;;;;13.54;95.98;99331.22;5078583;28;20106;-61
2021/08/07 01:01:10;;;;;;;4.65;2.63;;;;;;;13.54;96.15;99325.84;5076424;28;20068;-64
2021/08/07 01:03:45;;;;;;;5.78;1.85;;;;;;;13.54;96.07;99323.13;5084066;28;20078;-56
2021/08/07 01:06:23;;;;;;;3.30;1.73;;;;;;;13.51;96.07;99328.06;5072719;28;20055;-56
2021/08/07 01:08:59;;;;;;;4.65;2.40;;;;;;;13.45;95.97;99337.72;5090845;28;20425;-64
2021/08/07 01:11:28;;;;;;;;;;;;;;;13.43;96.15;99340.59;5081551;28;20075;-62
2021/08/07 01:14:00;;;;;;;3.58;2.28;;;;;;;13.42;96.41;99340.78;5088672;28;19920;-58
2021/08/07 01:16:30;;;;;;;4.75;2.50;;;;;;;13.44;96.85;99330.66;5092249;28;20485;-62
2021/08/07 01:19:00;;;;;;;4.65;2.13;;;;;;;13.43;96.86;99335.22;5090940;28;20071;-58
2021/08/07 01:21:30;;;;;;;6.43;2.47;;;;;;;13.45;96.78;99337.72;5074305;28;20075;-57
2021/08/07 01:24:02;;;;;;;3.10;2.10;;;;;;;13.44;96.80;99339.59;5089528;28;20079;-56
2021/08/07 01:26:33;;;;;;;4.20;2.00;;;;;;;13.45;96.70;99337.72;5080677;28;20101;-55
2021/08/07 01:29:01;;;;;;;3.05;1.85;;;;;;;13.39;96.61;99331.22;5081767;28;20048;-56
2021/08/07 01:31:28;;;;;;;4.38;2.50;;;;;;;13.32;96.48;99332.13;5091185;28;20047;-56
2021/08/07 01:33:56;;;;;;;3.85;2.05;;;;;;;13.24;96.40;99335.72;5086114;28;20509;-56
2021/08/07 01:36:23;;;;;;;4.65;2.67;;;;;;;13.23;96.74;99336.75;5069181;28;20118;-56
2021/08/07 01:38:50;;;;;;;5.38;2.22;;;;;;;13.33;97.12;99342.72;5085583;28;20517;-61
2021/08/07 01:41:18;;;;;;;3.25;2.28;;;;;;;13.45;97.49;99343.13;5085713;28;20527;-59
2021/08/07 01:43:44;;;;;;;3.30;2.15;;;;;;;13.55;97.40;99337.47;5089666;28;20059;-59
2021/08/07 01:46:14;;;;;;;6.50;2.28;;;;;;;13.55;97.23;99338.28;5087541;28;20073;-60
2021/08/07 01:48:48;;;;;;;4.50;2.03;;;;;;;13.54;97.17;99341.19;5083439;28;20093;-55
2021/08/07 01:51:19;;;;;;;4.18;2.40;;;;;;;13.56;97.43;99339.13;5089419;28;20067;-65
2021/08/07 01:53:48;;;;;;;2.90;1.90;;;;;;;13.62;97.24;99338.41;5080190;28;20088;-60
2021/08/07 01:56:17;;;;;;;5.15;1.80;;;;;;;13.58;97.10;99332.53;5080633;28;20075;-56
2021/08/07 01:58:47;;;;;;;4.28;2.40;;;;;;;13.59;96.55;99333.34;5086594;28;20509;-55
2021/08/07 02:01:16;;;;;;;3.78;1.80;;;;;;;13.49;96.29;99327.41;5088868;28;20101;-58
2021/08/07 02:03:44;;;;;;;5.20;2.35;;;;;;;13.48;96.23;99329.25;5089340;28;20490;-55
2021/08/07 02:06:11;;;;;;;3.03;1.95;;;;;;;13.45;96.03;99324.25;5081434;28;20102;-61
2021/08/07 02:08:40;;;;;;;4.47;2.42;;;;;;;13.36;95.86;99317.25;5074701;28;20044;-58
2021/08/07 02:11:07;;;;;;;4.63;2.22;;;;;;;13.32;96.09;99326.75;5083606;28;20044;-59
2021/08/07 02:13:34;;;;;;;3.38;2.17;;;;;;;13.24;96.06;99326.81;5075186;28;20102;-56
2021/08/07 02:16:02;;;;;;;5.53;1.70;;;;;;;13.19;96.17;99327.38;5087170;28;20588;-59
2021/08/07 02:18:30;;;;;;;7.03;2.42;;;;;;;13.13;96.42;99323.50;5088915;28;20054;-61
2021/08/07 02:20:57;;;;;;;3.85;2.15;;;;;;;13.13;96.48;99323.50;5082700;28;20080;-57
2021/08/07 02:23:24;;;;;;;4.25;2.25;;;;;;;13.04;96.29;99311.16;5083355;28;20467;-59
2021/08/07 02:25:57;;;;;;;3.40;2.00;;;;;;;13.06;96.42;99311.81;5081665;28;20097;-60
2021/08/07 02:28:25;;;;;;;2.97;1.63;;;;;;;13.07;96.57;99313.47;5087164;28;20089;-58
2021/08/07 02:30:52;;;;;;;4.20;2.10;;;;;;;13.02;96.28;99299.75;5070994;28;20048;-58
2021/08/07 02:33:21;;;;;;;3.42;1.80;;;;;;;12.98;96.38;99303.78;5084938;28;20444;-56
2021/08/07 02:35:52;;;;;;;2.88;1.80;;;;;;;12.95;96.17;99304.16;5077287;28;20052;-62
2021/08/07 02:38:19;;;;;;;3.22;1.90;;;;;;;12.92;96.26;99296.47;5084386;28;20102;-63
2021/08/07 02:40:45;;;;;;;3.40;2.10;;;;;;;12.91;96.13;99308.25;5078933;28;20052;-63
2021/08/07 02:43:12;;;;;;;3.90;1.67;;;;;;;12.84;96.29;99301.91;5071677;28;20063;-60
2021/08/07 02:45:39;;;;;;;4.63;1.70;;;;;;;12.75;96.37;99308.38;5086753;28;20106;-61
2021/08/07 02:48:06;;;;;;;3.55;2.10;;;;;;;12.73;96.42;99305.84;5082574;28;20092;-62
2021/08/07 02:50:33;;;;;;;2.45;1.65;;;;;;;12.71;96.25;99310.59;5081553;28;20048;-62
2021/08/07 02:53:01;;;;;;;3.47;1.77;;;;;;;12.71;96.58;99315.13;5077117;28;20044;-62
2021/08/07 02:55:29;;;;;;;2.08;1.73;;;;;;;12.78;96.44;99308.00;5084650;28;20486;-61
2021/08/07 02:57:56;;;;;;;4.97;1.70;;;;;;;12.72;96.83;99306.88;5086111;28;20072;-59
2021/08/07 03:00:23;;;;;;;6.50;3.47;;;;;;;12.72;96.65;99314.13;5089227;28;20100;-65
2021/08/07 03:02:49;;;;;;;2.50;1.67;;;;;;;12.68;96.39;99310.97;5088370;28;20452;-65
2021/08/07 03:05:18;;;;;;;4.15;1.80;;;;;;;12.72;96.59;99314.13;5086926;28;20109;-61
2021/08/07 03:07:44;;;;;;;5.10;2.10;;;;;;;12.73;96.72;99305.03;5079405;28;20044;-62
2021/08/07 03:10:12;;;;;;;4.28;2.45;;;;;;;12.71;96.60;99307.91;5085465;28;20068;-61
2021/08/07 03:12:38;;;;;;;2.72;1.85;;;;;;;12.67;96.67;99305.72;5083969;28;20555;-60
2021/08/07 03:15:07;;;;;;;3.22;2.10;;;;;;;12.64;96.71;99303.41;5089001;28;20102;-62
2021/08/07 03:17:33;;;;;;;4.05;2.33;;;;;;;12.64;96.51;99309.63;5086106;28;20066;-63
2021/08/07 03:20:00;;;;;;;5.20;1.90;;;;;;;12.57;96.46;99309.53;5087983;28;20052;-65
2021/08/07 03:22:26;;;;;;;3.63;1.98;;;;;;;12.58;96.53;99308.50;5080658;28;20094;-64
2021/08/07 03:24:52;;;;;;;3.53;2.25;;;;;;;12.64;96.55;99301.56;5088027;28;20071;-63
2021/08/07 03:27:20;;;;;;;3.60;2.17;;;;;;;12.54;96.47;99307.16;5086812;28;20048;-63
2021/08/07 03:29:46;;;;;;;3.33;2.35;;;;;;;12.52;96.43;99306.53;5089646;28;20070;-65
2021/08/07 03:32:13;;;;;;;4.43;2.22;;;;;;;12.48;96.70;99305.22;5087779;28;20114;-61
2021/08/07 03:34:39;;;;;;;2.65;1.95;;;;;;;12.44;96.77;99309.28;5085485;28;20048;-64
2021/08/07 03:37:05;;;;;;;4.15;2.22;;;;;;;12.45;96.70;99312.81;5083044;28;20144;-62
2021/08/07 03:39:32;;;;;;;6.20;2.00;;;;;;;12.45;96.68;99308.28;5080870;28;20044;-61
2021/08/07 03:41:58;;;;;;;3.05;2.15;;;;;;;12.46;96.83;99315.31;5079428;28;20076;-64
2021/08/07 03:44:26;;;;;;;4.13;2.63;;;;;;;12.49;96.79;99314.97;5077811;28;20121;-62
2021/08/07 03:46:52;;;;;;;2.90;2.03;;;;;;;12.43;96.51;99320.22;5079578;28;20072;-60
2021/08/07 03:49:18;;;;;;;3.08;2.10;;;;;;;12.37;96.45;99313.69;5087822;28;20052;-61
2021/08/07 03:52:23;;;;;;;4.53;1.88;;;;;;;12.35;96.64;99306.81;5088147;28;20080;-64
2021/08/07 03:54:49;;;;;;;3.55;1.65;;;;;;;12.31;96.52;99314.38;5065885;28;20076;-62
2021/08/07 03:57:15;;;;;;;3.00;2.08;;;;;;;12.30;96.56;99316.25;5078262;28;20041;-62
2021/08/07 03:59:43;;;;;;;3.45;2.25;;;;;;;12.29;96.85;99313.75;5076370;28;20141;-60
2021/08/07 04:02:09;;;;;;;2.80;2.00;;;;;;;12.30;96.71;99312.72;5086108;28;20052;-61
2021/08/07 04:04:35;;;;;;;4.55;2.70;;;;;;;12.36;97.01;99303.94;5078950;28;20075;-62
2021/08/07 04:07:02;;;;;;;5.63;2.30;;;;;;;12.42;96.61;99308.59;5070799;28;20044;-61
2021/08/07 04:09:28;;;;;;;3.80;2.20;;;;;;;12.52;96.54;99301.13;5073580;28;20440;-63
2021/08/07 04:11:55;;;;;;;6.45;2.60;;;;;;;12.65;96.29;99311.31;5082259;28;20571;-60
2021/08/07 04:14:21;;;;;;;3.33;2.35;;;;;;;12.61;96.35;99311.84;5083332;28;20048;-61
2021/08/07 04:16:48;;;;;;;2.70;1.80;;;;;;;12.56;96.30;99307.84;5082575;28;20414;-61
2021/08/07 04:19:15;;;;;;;3.60;2.15;;;;;;;12.58;96.16;99310.38;5084493;28;20075;-63
2021/08/07 04:21:41;;;;;;;2.78;2.10;;;;;;;12.59;96.25;99310.19;5087645;28;20125;-64
2021/08/07 04:24:07;;;;;;;2.78;2.10;;;;;;;12.59;96.21;99309.34;5087724;28;20115;-61
2021/08/07 04:26:34;;;;;;;3.05;2.20;;;;;;;12.61;96.09;99306.47;5087423;28;20117;-62
2021/08/07 04:29:00;;;;;;;3.83;2.10;;;;;;;12.66;96.24;99314.81;5086993;28;20098;-62
2021/08/07 04:31:26;;;;;;;4.07;2.22;;;;;;;12.71;96.19;99309.75;5088591;28;20082;-61
2021/08/07 04:33:54;;;;;;;4.38;2.45;;;;;;;12.82;96.14;99315.56;5087351;28;20040;-61
2021/08/07 04:36:20;;;;;;;5.28;2.40;;;;;;;12.87;95.89;99315.84;5083234;28;20072;-60
2021/08/07 04:38:47;;;;;;;4.78;2.55;;;;;;;13.03;95.61;99314.88;5083672;28;20043;-60
2021/08/07 04:41:13;;;;;;;3.03;2.28;;;;;;;13.04;95.52;99321.94;5078619;28;20079;-60
2021/08/07 04:43:39;;;;;;;6.15;2.53;;;;;;;13.25;95.13;99331.19;5090108;28;20040;-62
2021/08/07 04:46:06;;;;;;;6.75;2.88;;;;;;;13.20;95.21;99326.34;5081440;28;20044;-63
2021/08/07 04:48:32;;;;;;;4.20;2.72;;;;;;;13.30;95.06;99329.63;5085982;28;20661;-63
2021/08/07 04:51:00;;;;;;;5.68;3.38;;;;;;;13.33;95.05;99340.03;5089096;28;20077;-61
2021/08/07 04:53:26;;;;;;;8.20;2.90;;;;;;;13.36;95.09;99339.66;5090040;28;20084;-60
2021/08/07 04:55:52;;;;;;;8.73;2.63;;;;;;;13.44;94.97;99336.88;5080458;28;20070;-61
2021/08/07 04:58:19;;;;;;;4.00;2.40;;;;;;;13.60;94.42;99340.41;5090769;28;20113;-61
2021/08/07 05:00:45;;;;;;;4.53;2.60;;;;;;;13.67;94.32;99330.56;5092496;28;20405;-61
2021/08/07 05:03:11;;;;;;;4.05;2.60;;;;;;;13.83;93.33;99335.75;5091133;28;20044;-61
2021/08/07 05:05:38;;;;;;;5.53;3.08;;;;;;;13.88;93.45;99327.97;5092387;28;20079;-62
2021/08/07 05:08:05;;;;;;;6.80;2.40;;;;;;;13.94;92.89;99339.84;5080819;28;20105;-62
2021/08/07 05:10:32;;;;;;;3.13;2.30;;;;;;;14.01;93.18;99343.50;5087764;28;20044;-61
2021/08/07 05:12:58;;;;;;;2.90;2.33;;;;;;;14.16;92.99;99344.28;5082313;22;20152;-60
2021/08/07 05:15:24;;;;;;;5.75;3.45;;;;;;;14.31;91.38;99338.84;5061087;28;20052;-61
2021/08/07 05:17:53;;;;;;;3.78;2.50;;;;;;;14.40;91.82;99343.13;5060490;28;20048;-61
2021/08/07 05:20:19;;;;;;;4.88;2.35;;;;;;;14.49;90.32;99346.56;5062220;28;20045;-62
2021/08/07 05:22:45;;;;;;;3.88;2.30;;;;;;;14.58;91.23;99342.75;5051075;28;20075;-58
2021/08/07 05:25:15;;;;;;;3.30;1.95;;;;;;;14.70;90.85;99343.91;5052613;28;20095;-61
2021/08/07 05:27:41;;;;;;;3.97;2.28;;;;;;;14.72;90.87;99347.25;5050335;28;20049;-60
2021/08/07 05:30:09;;;;;;;6.03;2.20;;;;;;;14.80;89.35;99344.41;5052461;28;20278;-60
2021/08/07 05:32:35;;;;;;;4.00;2.08;;;;;;;14.90;89.62;99347.59;5037738;28;20477;-60
2021/08/07 05:35:01;;;;;;;3.28;2.10;;;;;;;14.94;89.99;99345.38;5041843;28;20107;-59
2021/08/07 05:37:28;;;;;;;4.45;2.60;;;;;;;15.04;88.67;99348.59;5041984;28;20045;-61
2021/08/07 05:39:54;;;;;;;6.70;2.22;;;;;;;15.28;88.55;99352.75;5048035;28;20045;-60
2021/08/07 05:42:22;;;;;;;5.13;2.53;;;;;;;15.31;87.00;99349.63;5050494;28;20076;-63
2021/08/07 05:44:48;;;;;;;4.13;2.33;;;;;;;15.55;85.08;99359.16;5051551;28;20049;-57
2021/08/07 05:47:15;;;;;;;3.92;2.00;;;;;;;15.58;86.65;99364.19;5050242;28;20056;-61
2021/08/07 05:49:41;;;;;;;6.55;2.38;;;;;;;15.62;85.34;99351.13;5051389;28;20073;-60
2021/08/07 05:52:08;;;;;;;10.63;2.72;;;;;;;15.66;86.24;99349.69;5044978;28;20095;-60
2021/08/07 05:54:34;;;;;;;3.35;1.75;;;;;;;15.82;85.74;99343.97;5051377;28;20048;-59
2021/08/07 05:57:00;;;;;;;4.50;1.77;;;;;;;15.96;85.68;99347.56;5051295;28;20050;-60
2021/08/07 05:59:28;;;;;;;5.10;1.30;;;;;;;16.09;84.35;99350.34;5050845;28;20107;-60
2021/08/07 06:01:54;;;;;;;3.40;1.58;;;;;;;16.09;83.11;99353.03;5050991;28;20102;-63
2021/08/07 06:04:21;;;;;;;6.78;1.90;;;;;;;16.24;83.17;99336.69;5035987;28;20053;-60
2021/08/07 06:06:47;;;;;;;2.58;1.55;;;;;;;16.35;82.53;99349.63;5049168;28;20045;-63
2021/08/07 06:09:13;;;;;;;6.63;1.50;;;;;;;16.36;83.98;99346.72;5047604;28;20179;-61
2021/08/07 06:11:40;;;;;;;4.10;1.50;;;;;;;16.45;80.98;99344.63;5048583;28;20589;-59
2021/08/07 06:14:06;;;;;;;2.60;1.60;;;;;;;16.51;81.89;99351.13;5042489;28;20083;-62
2021/08/07 06:16:34;;;;;;;5.03;1.85;;;;;;;16.66;81.86;99347.19;5049769;28;20099;-60
2021/08/07 06:19:00;;;;;;;3.33;1.83;;;;;;;16.80;81.24;99336.41;5050780;28;20052;-61
2021/08/07 06:21:27;;;;;;;8.65;1.85;;;;;;;16.92;80.90;99335.59;5050924;28;20049;-60
2021/08/07 06:23:53;;;;;;;3.67;1.30;;;;;;;16.94;79.09;99332.72;5044552;28;20568;-59
2021/08/07 06:26:19;;;;;;;6.35;1.50;;;;;;;17.08;79.21;99328.97;5045453;28;20113;-61
2021/08/07 06:28:46;;;;;;;2.38;1.30;;;;;;;17.31;78.65;99331.25;5047514;28;20456;-60
2021/08/07 06:31:12;;;;;;;3.83;1.27;;;;;;;17.27;76.62;99340.00;5051343;28;20503;-59
2021/08/07 06:33:40;;;;;;;2.95;1.20;;;;;;;17.42;75.92;99335.22;5052058;28;20107;-58
2021/08/07 06:36:07;;;;;;;3.78;1.25;;;;;;;17.64;74.30;99333.94;5052392;28;20098;-60
2021/08/07 06:38:33;;;;;;;1.55;1.20;;;;;;;17.47;74.39;99332.69;5052002;28;20045;-64
2021/08/07 06:40:59;;;;;;;3.13;1.85;;;;;;;17.36;74.37;99334.16;5052320;28;20110;-61
2021/08/07 06:43:26;;;;;;;4.93;1.20;;;;;;;17.57;74.49;99341.22;5052609;28;20049;-60
2021/08/07 06:45:52;;;;;;;1.52;1.25;;;;;;;17.65;73.82;99340.19;5052139;28;20040;-62
2021/08/07 06:48:19;;;;;;;2.78;1.35;;;;;;;17.83;72.71;99349.34;5052509;28;20052;-57
2021/08/07 06:50:47;;;;;;;2.13;1.40;;;;;;;17.80;74.94;99343.50;5052155;28;20053;-60
2021/08/07 06:53:13;;;;;;;2.78;1.23;;;;;;;17.98;73.94;99354.50;5052003;28;20045;-61
2021/08/07 06:55:40;;;;;;;2.28;1.17;;;;;;;18.15;73.30;99352.19;5052095;28;20052;-62
2021/08/07 06:58:06;;;;;;;2.67;1.33;;;;;;;18.23;73.74;99357.38;5051857;28;20053;-63
2021/08/07 07:00:36;;;;;;;3.20;1.45;;;;;;;17.99;73.67;99353.47;5044942;28;20088;-62
2021/08/07 07:03:02;;;;;;;2.20;1.30;;;;;;;18.20;74.13;99357.78;5050134;28;20110;-61
2021/08/07 07:05:31;;;;;;;2.22;1.25;;;;;;;18.33;72.06;99359.59;5051808;28;20574;-64
2021/08/07 07:07:59;;;;;;;2.00;1.27;;;;;;;18.55;72.37;99351.97;5049437;28;20053;-61
2021/08/07 07:10:25;;;;;;;3.85;1.08;;;;;;;18.83;70.77;99352.50;5032203;28;20045;-63
2021/08/07 07:12:51;;;;;;;1.58;1.00;;;;;;;19.11;70.04;99351.25;5037198;28;20048;-63
2021/08/07 07:15:18;;;;;;;3.45;1.10;;;;;;;19.35;69.12;99346.84;5048649;28;20068;-63
2021/08/07 07:17:45;;;;;;;3.80;1.65;;;;;;;19.51;68.07;99349.84;5049994;28;20041;-63
2021/08/07 07:20:13;;;;;;;3.05;1.20;;;;;;;19.54;67.54;99343.13;5049405;28;20102;-61
2021/08/07 07:22:40;;;;;;;5.20;1.20;;;;;;;19.51;67.34;99349.00;5049670;28;20049;-65
2021/08/07 07:25:15;;;;;;;4.32;1.00;;;;;;;19.45;67.53;99350.75;5048643;28;20125;-63
2021/08/07 07:27:42;;;;;;;2.28;1.00;;;;;;;19.68;67.80;99350.13;5047693;28;20045;-63
2021/08/07 07:30:10;;;;;;;1.50;0.80;;;;;;;19.86;68.16;99352.03;5043526;28;20146;-61
2021/08/07 07:32:37;;;;;;;4.80;1.23;;;;;;;19.80;65.84;99350.22;5048560;28;20160;-63
2021/08/07 07:35:03;;;;;;;2.05;1.10;;;;;;;19.88;65.82;99347.19;5048774;28;20095;-62
2021/08/07 07:37:30;;;;;;;3.63;1.10;;;;;;;20.01;66.26;99343.47;5049614;28;20070;-62
2021/08/07 07:39:56;;;;;;;2.47;0.88;;;;;;;20.09;63.62;99344.03;5047582;28;20079;-61
2021/08/07 07:42:24;;;;;;;2.78;1.10;;;;;;;20.02;63.55;99342.47;5049414;28;20052;-61
2021/08/07 07:44:51;;;;;;;1.52;1.08;;;;;;;19.92;63.90;99333.97;5049022;28;20507;-62
2021/08/07 07:47:17;;;;;;;5.40;1.25;;;;;;;20.19;63.64;99332.59;5049073;28;20103;-64
2021/08/07 07:49:43;;;;;;;3.70;1.15;;;;;;;20.40;64.16;99332.13;5047381;28;20064;-61
2021/08/07 07:52:10;;;;;;;1.15;0.80;;;;;;;20.68;62.30;99341.63;5049414;28;20126;-65
2021/08/07 07:54:36;;;;;;;2.72;1.00;;;;;;;20.77;63.22;99334.78;5048340;28;20514;-62
2021/08/07 07:57:04;;;;;;;2.60;1.00;;;;;;;20.87;61.41;99337.78;5049165;28;20473;-63
2021/08/07 07:59:31;;;;;;;3.78;1.08;;;;;;;20.89;61.89;99335.66;5049155;28;20045;-60
2021/08/07 08:02:01;;;;;;;3.28;0.98;;;;;;;20.73;62.97;99339.88;5047344;28;20073;-62
2021/08/07 08:04:29;;;;;;;2.05;0.80;;;;;;;20.87;63.15;99342.41;5047877;28;20056;-64
2021/08/07 08:06:55;;;;;;;2.95;1.23;;;;;;;20.96;59.98;99341.84;5047294;28;20045;-62
2021/08/07 08:09:22;;;;;;;4.13;1.00;;;;;;;21.04;58.03;99335.19;5041877;28;20499;-62
2021/08/07 08:11:48;;;;;;;1.70;0.90;;;;;;;21.10;60.63;99333.44;5048506;28;20048;-62
2021/08/07 08:14:15;;;;;;;2.67;1.00;;;;;;;21.19;60.08;99335.59;5051985;28;20049;-61
2021/08/07 08:16:43;;;;;;;3.55;1.10;;;;;;;21.40;58.53;99331.47;5050819;28;20073;-63
2021/08/07 08:19:11;;;;;;;2.05;0.90;;;;;;;21.44;58.99;99329.13;5052313;28;20053;-64
2021/08/07 08:21:37;;;;;;;2.33;1.08;;;;;;;21.62;60.44;99337.19;5052671;28;20048;-62
2021/08/07 08:24:04;;;;;;;3.20;1.17;;;;;;;21.65;59.75;99339.44;5053364;28;20048;-61
2021/08/07 08:26:30;;;;;;;2.85;0.90;;;;;;;21.46;59.94;99335.19;5044200;28;21296;-61
2021/08/07 08:28:57;;;;;;;6.80;1.10;;;;;;;21.46;59.14;99337.91;5044801;28;20049;-62
2021/08/07 08:31:24;;;;;;;4.95;1.10;;;;;;;21.34;58.83;99339.78;5049099;28;20048;-62
2021/08/07 08:33:51;;;;;;;3.20;1.30;;;;;;;21.45;57.81;99336.25;5052856;28;20077;-62
2021/08/07 08:36:18;;;;;;;2.08;0.93;;;;;;;21.63;57.68;99344.31;5049243;28;20112;-61
2021/08/07 08:38:45;;;;;;;1.40;0.73;;;;;;;21.76;58.08;99351.41;5046454;28;20047;-63
2021/08/07 08:41:11;;;;;;;2.60;0.88;;;;;;;21.98;57.57;99336.09;5045326;28;20130;-61
2021/08/07 08:43:38;;;;;;;1.80;0.82;;;;;;;22.15;56.82;99347.16;5043787;28;20076;-61
2021/08/07 08:46:05;;;;;;;1.25;0.93;;;;;;;22.06;55.96;99337.66;5042880;28;20412;-63
2021/08/07 08:48:32;;;;;;;1.33;0.70;;;;;;;22.40;54.46;99342.19;5046282;28;20457;-62
2021/08/07 08:51:00;;;;;;;2.53;0.80;;;;;;;22.38;55.91;99347.09;5054401;28;20053;-61
2021/08/07 08:53:27;;;;;;;1.15;0.90;;;;;;;22.52;55.11;99347.63;5051011;28;20080;-62
2021/08/07 08:55:53;;;;;;;2.05;0.50;;;;;;;22.94;55.37;99350.91;5052444;28;20079;-61
2021/08/07 08:58:20;;;;;;;2.45;1.00;;;;;;;22.91;56.60;99351.41;5052036;28;20049;-61
2021/08/07 09:00:46;;;;;;;1.25;0.60;;;;;;;22.60;52.96;99344.47;5050635;28;20498;-62
2021/08/07 09:03:13;;;;;;;1.90;0.82;;;;;;;22.44;54.86;99358.94;5050277;28;20072;-63
2021/08/07 09:05:39;;;;;;;2.03;0.80;;;;;;;22.35;57.54;99361.22;5046070;28;20084;-62
2021/08/07 09:08:07;;;;;;;2.97;0.70;;;;;;;22.10;53.71;99364.25;5049889;28;20131;-61
2021/08/07 09:10:35;;;;;;;1.80;0.80;;;;;;;22.06;52.62;99359.50;5050814;28;20045;-62
2021/08/07 09:13:03;;;;;;;2.38;0.80;;;;;;;21.88;55.06;99364.00;5044985;28;20061;-62
2021/08/07 09:15:33;;;;;;;3.10;0.93;;;;;;;22.18;55.25;99357.59;5049388;28;20136;-62
2021/08/07 09:18:25;;;;;;;2.58;0.90;;;;;;;22.11;53.81;99348.69;5050799;28;20065;-63
2021/08/07 09:20:53;;;;;;;2.05;0.80;;;;;;;22.03;52.82;99354.50;5051988;28;20185;-62
2021/08/07 09:23:32;;;;;;;2.03;1.05;;;;;;;22.44;55.09;99348.81;5049874;28;20045;-63
2021/08/07 09:26:12;;;;;;;4.05;0.80;;;;;;;22.74;52.18;99345.03;5052986;28;20103;-63
2021/08/07 09:28:43;;;;;;;1.77;0.80;;;;;;;22.77;51.71;99328.13;5046052;28;20045;-59
2021/08/07 09:31:10;;;;;;;3.30;0.73;;;;;;;22.83;50.22;99334.50;5051024;28;20162;-60
2021/08/07 09:33:37;;;;;;;2.65;0.98;;;;;;;22.70;50.69;99321.97;5051174;28;20568;-61
2021/08/07 09:36:03;;;;;;;3.75;0.80;;;;;;;22.92;51.66;99322.13;5050524;28;20103;-60
2021/08/07 09:38:31;;;;;;;2.08;0.65;;;;;;;23.47;50.50;99319.50;5042823;28;20069;-61
2021/08/07 09:40:59;;;;;;;3.92;0.70;;;;;;;23.54;49.59;99316.56;5041118;28;20053;-61
2021/08/07 09:43:28;;;;;;;2.38;0.73;;;;;;;23.43;49.70;99312.84;5035729;28;20041;-61
2021/08/07 09:46:03;;;;;;;3.30;0.80;;;;;;;22.99;47.16;99309.97;5041976;28;20496;-62
2021/08/07 09:48:32;;;;;;;1.77;0.73;;;;;;;23.33;50.44;99318.19;5040072;28;20049;-62
2021/08/07 09:50:58;;;;;;;2.03;0.68;;;;;;;23.48;48.89;99318.41;5043151;28;20110;-63
2021/08/07 09:53:27;;;;;;;2.15;0.60;;;;;;;23.81;49.33;99316.72;5036973;28;20099;-63
2021/08/07 09:56:06;;;;;;;0.85;0.43;;;;;;;24.35;47.26;99317.72;5035282;28;20087;-63
2021/08/07 09:58:32;;;;;;;1.50;0.60;;;;;;;24.40;47.23;99311.47;5037196;28;20131;-63
2021/08/07 10:00:59;;;;;;;3.08;0.70;;;;;;;24.09;47.11;99313.81;5040918;28;20045;-62
2021/08/07 10:03:29;;;;;;;1.70;0.65;;;;;;;24.01;45.68;99308.75;5033064;28;20049;-62
2021/08/07 10:05:56;;;;;;;2.05;0.60;;;;;;;24.16;46.89;99311.72;5041285;28;20065;-62
2021/08/07 10:08:23;;;;;;;1.00;0.50;;;;;;;24.29;45.32;99304.19;5036150;28;20049;-63
2021/08/07 10:11:08;;;;;;;2.00;0.70;;;;;;;24.15;44.23;99306.47;5038389;28;20094;-62
2021/08/07 10:13:35;;;;;;;3.58;0.70;;;;;;;24.34;45.52;99304.28;5035934;28;20057;-61
2021/08/07 10:16:03;;;;;;;3.97;0.63;;;;;;;24.38;44.60;99305.41;5033461;28;20098;-63
2021/08/07 10:18:32;;;;;;;1.40;0.57;;;;;;;24.26;43.79;99302.75;5040964;28;20041;-65
2021/08/07 10:21:03;;;;;;;2.00;0.55;;;;;;;24.49;45.16;99296.19;5035714;28;20077;-62
2021/08/07 10:23:32;;;;;;;1.40;0.70;;;;;;;24.75;44.34;99300.88;5042021;28;20079;-62
2021/08/07 10:25:59;;;;;;;1.67;0.50;;;;;;;24.66;43.31;99296.13;5038235;28;20581;-61
2021/08/07 10:28:28;;;;;;;2.95;0.57;;;;;;;24.93;44.61;99285.94;5039787;28;20076;-62
2021/08/07 10:30:58;;;;;;;2.03;0.55;;;;;;;25.18;42.95;99277.13;5039057;28;20068;-62
2021/08/07 10:33:26;;;;;;;1.85;0.35;;;;;;;24.88;44.38;99290.56;5035215;28;20419;-64
2021/08/07 10:35:54;;;;;;;1.55;0.73;;;;;;;24.44;44.68;99277.78;5037675;28;20857;-63
2021/08/07 10:38:21;;;;;;;2.75;0.70;;;;;;;24.53;43.93;99282.81;5036717;28;20072;-63
2021/08/07 10:40:47;;;;;;;2.80;0.77;;;;;;;24.82;46.22;99284.19;5038082;28;20052;-62
2021/08/07 10:43:17;;;;;;;0.82;0.40;;;;;;;25.22;42.96;99274.66;5047417;28;20072;-63
2021/08/07 10:45:44;;;;;;;2.10;0.80;;;;;;;25.51;44.46;99278.72;5035906;28;20033;-62
2021/08/07 10:48:37;;;;;;;3.45;0.55;;;;;;;24.86;43.04;99270.78;5033275;28;20085;-62
2021/08/07 10:51:30;;;;;;;1.85;0.70;;;;;;;24.89;43.02;99273.84;5041440;28;20576;-62
2021/08/07 10:53:58;;;;;;;1.40;0.60;;;;;;;24.69;43.07;99260.75;5037172;28;20396;-62
2021/08/07 10:56:35;;;;;;;2.88;0.70;;;;;;;25.21;44.59;99273.00;5040080;28;20057;-61
2021/08/07 10:59:17;;;;;;;3.20;0.73;;;;;;;25.12;45.84;99266.38;5033125;28;20114;-62
2021/08/07 11:01:44;;;;;;;0.63;0.38;;;;;;;24.94;45.55;99281.28;5038758;28;20048;-61
2021/08/07 11:04:24;;;;;;;1.25;0.40;;;;;;;25.02;45.97;99300.06;5037038;28;20076;-59
2021/08/07 11:07:03;;;;;;;0.90;0.47;;;;;;;24.95;45.16;99291.16;5035186;28;20137;-61
2021/08/07 11:09:32;;;;;;;0.70;0.50;;;;;;;25.02;44.73;99289.91;5041951;28;20455;-62
2021/08/07 11:15:11;;;;;;;2.35;0.40;;;;;;;24.65;46.07;99289.81;5028478;28;20415;-59
2021/08/07 11:17:44;;;;;;;0.85;0.40;;;;;;;24.57;44.06;99290.25;5033202;28;20071;-58
2021/08/07 11:20:15;;;;;;;2.17;0.55;;;;;;;24.58;45.17;99282.84;5043332;28;20061;-59
2021/08/07 11:23:12;;;;;;;1.15;0.50;;;;;;;24.65;42.54;99275.25;5034093;28;20053;-56
2021/08/07 11:25:59;;;;;;;2.55;0.47;;;;;;;24.49;43.71;99275.09;5014877;28;20038;-58
2021/08/07 11:28:26;;;;;;;2.75;1.00;;;;;;;24.48;44.32;99267.94;5004452;28;20095;-57
2021/08/07 11:31:16;;;;;;;1.52;0.50;;;;;;;25.19;43.42;99278.78;5006606;28;20558;-59
2021/08/07 11:33:42;;;;;;;0.88;0.40;;;;;;;25.74;42.78;99285.78;4995206;28;20105;-54
2021/08/07 11:36:15;;;;;;;1.27;0.40;;;;;;;25.62;42.73;99271.38;5006803;28;20042;-59
2021/08/07 11:39:04;;;;;;;2.22;0.50;;;;;;;25.70;41.81;99273.66;5011166;28;20049;-56
2021/08/07 11:41:33;;;;;;;1.75;0.70;;;;;;;26.03;41.56;99271.59;5009488;28;20096;-62